sensor_id;sensor_type;location;lat;lon;timestamp;P1;durP1;ratioP1;P2;durP2;ratioP2
12135;SDS011;6131;56.420;15.548;2022-11-20T00:00:27;2.30;;;1.60;;
12135;SDS011;6131;56.420;15.548;2022-11-20T00:02:53;1.97;;;1.70;;
12135;SDS011;6131;56.420;15.548;2022-11-20T00:05:19;2.17;;;1.90;;
12135;SDS011;6131;56.420;15.548;2022-11-20T00:07:46;2.37;;;1.60;;
12135;SDS011;6131;56.420;15.548;2022-11-20T00:10:12;2.00;;;1.70;;
12135;SDS011;6131;56.420;15.548;2022-11-20T00:12:38;2.00;;;1.70;;
12135;SDS011;6131;56.420;15.548;2022-11-20T00:15:04;2.00;;;1.40;;
12135;SDS011;6131;56.420;15.548;2022-11-20T00:17:30;2.20;;;1.73;;
12135;SDS011;6131;56.420;15.548;2022-11-20T00:19:56;2.80;;;1.70;;
12135;SDS011;6131;56.420;15.548;2022-11-20T00:22:22;2.23;;;2.03;;
12135;SDS011;6131;56.420;15.548;2022-11-20T00:24:48;1.90;;;1.70;;
12135;SDS011;6131;56.420;15.548;2022-11-20T00:27:14;1.90;;;1.60;;
12135;SDS011;6131;56.420;15.548;2022-11-20T00:29:40;3.63;;;1.57;;
12135;SDS011;6131;56.420;15.548;2022-11-20T00:32:06;2.33;;;1.73;;
12135;SDS011;6131;56.420;15.548;2022-11-20T00:34:32;2.07;;;1.43;;
12135;SDS011;6131;56.420;15.548;2022-11-20T00:36:58;2.77;;;1.50;;
12135;SDS011;6131;56.420;15.548;2022-11-20T00:39:24;1.77;;;1.67;;
12135;SDS011;6131;56.420;15.548;2022-11-20T00:41:50;1.83;;;1.60;;
12135;SDS011;6131;56.420;15.548;2022-11-20T00:44:16;2.30;;;1.60;;
12135;SDS011;6131;56.420;15.548;2022-11-20T00:46:42;1.77;;;1.50;;
12135;SDS011;6131;56.420;15.548;2022-11-20T00:49:08;2.30;;;1.70;;
12135;SDS011;6131;56.420;15.548;2022-11-20T00:51:34;2.80;;;1.67;;
12135;SDS011;6131;56.420;15.548;2022-11-20T00:54:00;2.07;;;1.60;;
12135;SDS011;6131;56.420;15.548;2022-11-20T00:56:27;1.70;;;1.50;;
12135;SDS011;6131;56.420;15.548;2022-11-20T00:58:53;1.93;;;1.50;;
12135;SDS011;6131;56.420;15.548;2022-11-20T01:01:20;1.37;;;1.17;;
12135;SDS011;6131;56.420;15.548;2022-11-20T01:03:49;1.97;;;1.70;;
12135;SDS011;6131;56.420;15.548;2022-11-20T01:06:17;2.23;;;1.40;;
12135;SDS011;6131;56.420;15.548;2022-11-20T01:08:43;3.63;;;1.73;;
12135;SDS011;6131;56.420;15.548;2022-11-20T01:11:11;1.50;;;1.40;;
12135;SDS011;6131;56.420;15.548;2022-11-20T01:13:37;2.07;;;1.40;;
12135;SDS011;6131;56.420;15.548;2022-11-20T01:16:08;2.70;;;1.53;;
12135;SDS011;6131;56.420;15.548;2022-11-20T01:18:35;1.90;;;1.30;;
12135;SDS011;6131;56.420;15.548;2022-11-20T01:21:05;2.33;;;1.40;;
12135;SDS011;6131;56.420;15.548;2022-11-20T01:23:35;1.70;;;1.50;;
12135;SDS011;6131;56.420;15.548;2022-11-20T01:26:03;1.60;;;1.13;;
12135;SDS011;6131;56.420;15.548;2022-11-20T01:28:29;1.40;;;1.30;;
12135;SDS011;6131;56.420;15.548;2022-11-20T01:30:56;2.00;;;1.37;;
12135;SDS011;6131;56.420;15.548;2022-11-20T01:33:22;1.53;;;1.23;;
12135;SDS011;6131;56.420;15.548;2022-11-20T01:35:48;1.60;;;1.30;;
12135;SDS011;6131;56.420;15.548;2022-11-20T01:38:15;1.40;;;1.30;;
12135;SDS011;6131;56.420;15.548;2022-11-20T01:40:41;1.90;;;1.60;;
12135;SDS011;6131;56.420;15.548;2022-11-20T01:43:12;1.87;;;1.40;;
12135;SDS011;6131;56.420;15.548;2022-11-20T01:48:20;3.33;;;1.40;;
12135;SDS011;6131;56.420;15.548;2022-11-20T01:50:48;1.70;;;1.20;;
12135;SDS011;6131;56.420;15.548;2022-11-20T01:53:16;1.60;;;1.37;;
12135;SDS011;6131;56.420;15.548;2022-11-20T01:55:50;1.87;;;1.20;;
12135;SDS011;6131;56.420;15.548;2022-11-20T01:58:18;1.47;;;1.30;;
12135;SDS011;6131;56.420;15.548;2022-11-20T02:00:45;1.57;;;1.30;;
12135;SDS011;6131;56.420;15.548;2022-11-20T02:03:12;1.43;;;1.20;;
12135;SDS011;6131;56.420;15.548;2022-11-20T02:08:16;1.20;;;1.10;;
12135;SDS011;6131;56.420;15.548;2022-11-20T02:10:43;1.23;;;1.13;;
12135;SDS011;6131;56.420;15.548;2022-11-20T02:13:09;2.27;;;1.20;;
12135;SDS011;6131;56.420;15.548;2022-11-20T02:15:53;1.50;;;1.23;;
12135;SDS011;6131;56.420;15.548;2022-11-20T02:18:19;1.50;;;1.30;;
12135;SDS011;6131;56.420;15.548;2022-11-20T02:20:46;1.53;;;1.30;;
12135;SDS011;6131;56.420;15.548;2022-11-20T02:25:45;2.00;;;1.40;;
12135;SDS011;6131;56.420;15.548;2022-11-20T02:28:11;1.60;;;1.30;;
12135;SDS011;6131;56.420;15.548;2022-11-20T02:30:37;1.37;;;1.27;;
12135;SDS011;6131;56.420;15.548;2022-11-20T02:33:03;1.67;;;1.40;;
12135;SDS011;6131;56.420;15.548;2022-11-20T02:37:56;1.70;;;1.30;;
12135;SDS011;6131;56.420;15.548;2022-11-20T02:40:23;1.73;;;1.30;;
12135;SDS011;6131;56.420;15.548;2022-11-20T02:42:55;1.40;;;1.23;;
12135;SDS011;6131;56.420;15.548;2022-11-20T02:45:22;3.07;;;1.40;;
12135;SDS011;6131;56.420;15.548;2022-11-20T02:47:49;2.17;;;1.50;;
12135;SDS011;6131;56.420;15.548;2022-11-20T02:50:15;2.37;;;1.30;;
12135;SDS011;6131;56.420;15.548;2022-11-20T02:52:41;3.93;;;1.57;;
12135;SDS011;6131;56.420;15.548;2022-11-20T02:55:07;1.57;;;1.37;;
12135;SDS011;6131;56.420;15.548;2022-11-20T02:57:33;1.80;;;1.50;;
12135;SDS011;6131;56.420;15.548;2022-11-20T02:59:59;1.43;;;1.33;;
12135;SDS011;6131;56.420;15.548;2022-11-20T03:02:25;1.93;;;1.50;;
12135;SDS011;6131;56.420;15.548;2022-11-20T03:04:51;2.87;;;1.63;;
12135;SDS011;6131;56.420;15.548;2022-11-20T03:07:17;2.30;;;1.60;;
12135;SDS011;6131;56.420;15.548;2022-11-20T03:09:43;1.60;;;1.30;;
12135;SDS011;6131;56.420;15.548;2022-11-20T03:12:09;2.27;;;1.90;;
12135;SDS011;6131;56.420;15.548;2022-11-20T03:14:35;1.80;;;1.53;;
12135;SDS011;6131;56.420;15.548;2022-11-20T03:17:01;2.07;;;1.80;;
12135;SDS011;6131;56.420;15.548;2022-11-20T03:19:27;1.97;;;1.67;;
12135;SDS011;6131;56.420;15.548;2022-11-20T03:21:53;2.73;;;1.80;;
12135;SDS011;6131;56.420;15.548;2022-11-20T03:24:19;2.23;;;2.03;;
12135;SDS011;6131;56.420;15.548;2022-11-20T03:26:45;2.83;;;2.00;;
12135;SDS011;6131;56.420;15.548;2022-11-20T03:29:11;2.00;;;1.77;;
12135;SDS011;6131;56.420;15.548;2022-11-20T03:31:37;2.33;;;2.00;;
12135;SDS011;6131;56.420;15.548;2022-11-20T03:34:07;3.10;;;2.10;;
12135;SDS011;6131;56.420;15.548;2022-11-20T03:36:33;2.17;;;1.83;;
12135;SDS011;6131;56.420;15.548;2022-11-20T03:38:59;3.93;;;2.10;;
12135;SDS011;6131;56.420;15.548;2022-11-20T03:41:27;2.67;;;1.93;;
12135;SDS011;6131;56.420;15.548;2022-11-20T03:43:57;3.73;;;2.00;;
12135;SDS011;6131;56.420;15.548;2022-11-20T03:46:23;2.13;;;1.80;;
12135;SDS011;6131;56.420;15.548;2022-11-20T03:48:50;2.43;;;1.70;;
12135;SDS011;6131;56.420;15.548;2022-11-20T03:51:17;3.67;;;1.90;;
12135;SDS011;6131;56.420;15.548;2022-11-20T03:53:44;2.53;;;1.80;;
12135;SDS011;6131;56.420;15.548;2022-11-20T03:56:10;2.60;;;1.80;;
12135;SDS011;6131;56.420;15.548;2022-11-20T03:58:37;3.03;;;1.67;;
12135;SDS011;6131;56.420;15.548;2022-11-20T04:03:35;2.17;;;1.63;;
12135;SDS011;6131;56.420;15.548;2022-11-20T04:06:05;2.10;;;1.80;;
12135;SDS011;6131;56.420;15.548;2022-11-20T04:08:32;2.93;;;1.67;;
12135;SDS011;6131;56.420;15.548;2022-11-20T04:13:45;2.30;;;1.70;;
12135;SDS011;6131;56.420;15.548;2022-11-20T04:16:11;2.20;;;2.00;;
12135;SDS011;6131;56.420;15.548;2022-11-20T04:18:37;2.27;;;1.80;;
12135;SDS011;6131;56.420;15.548;2022-11-20T04:21:04;2.17;;;1.83;;
12135;SDS011;6131;56.420;15.548;2022-11-20T04:23:30;2.00;;;1.80;;
12135;SDS011;6131;56.420;15.548;2022-11-20T04:26:00;2.10;;;1.90;;
12135;SDS011;6131;56.420;15.548;2022-11-20T04:28:27;1.87;;;1.67;;
12135;SDS011;6131;56.420;15.548;2022-11-20T04:30:53;2.30;;;1.40;;
12135;SDS011;6131;56.420;15.548;2022-11-20T04:33:19;2.63;;;2.10;;
12135;SDS011;6131;56.420;15.548;2022-11-20T04:35:45;2.60;;;1.70;;
12135;SDS011;6131;56.420;15.548;2022-11-20T04:38:14;3.30;;;1.63;;
12135;SDS011;6131;56.420;15.548;2022-11-20T04:40:40;1.97;;;1.70;;
12135;SDS011;6131;56.420;15.548;2022-11-20T04:43:06;2.20;;;1.67;;
12135;SDS011;6131;56.420;15.548;2022-11-20T04:45:32;2.73;;;1.70;;
12135;SDS011;6131;56.420;15.548;2022-11-20T04:47:58;2.80;;;1.80;;
12135;SDS011;6131;56.420;15.548;2022-11-20T04:50:24;3.47;;;1.87;;
12135;SDS011;6131;56.420;15.548;2022-11-20T04:52:50;2.00;;;1.60;;
12135;SDS011;6131;56.420;15.548;2022-11-20T04:55:16;2.00;;;1.67;;
12135;SDS011;6131;56.420;15.548;2022-11-20T04:57:42;2.07;;;1.63;;
12135;SDS011;6131;56.420;15.548;2022-11-20T05:00:08;3.80;;;1.80;;
12135;SDS011;6131;56.420;15.548;2022-11-20T05:02:34;1.70;;;1.60;;
12135;SDS011;6131;56.420;15.548;2022-11-20T05:05:00;2.03;;;1.70;;
12135;SDS011;6131;56.420;15.548;2022-11-20T05:07:26;1.73;;;1.57;;
12135;SDS011;6131;56.420;15.548;2022-11-20T05:09:52;2.40;;;1.60;;
12135;SDS011;6131;56.420;15.548;2022-11-20T05:12:18;1.80;;;1.63;;
12135;SDS011;6131;56.420;15.548;2022-11-20T05:14:44;3.60;;;1.97;;
12135;SDS011;6131;56.420;15.548;2022-11-20T05:17:10;2.30;;;1.80;;
12135;SDS011;6131;56.420;15.548;2022-11-20T05:19:37;2.17;;;1.70;;
12135;SDS011;6131;56.420;15.548;2022-11-20T05:22:04;2.80;;;1.93;;
12135;SDS011;6131;56.420;15.548;2022-11-20T05:24:30;4.13;;;1.80;;
12135;SDS011;6131;56.420;15.548;2022-11-20T05:26:57;1.60;;;1.50;;
12135;SDS011;6131;56.420;15.548;2022-11-20T05:29:23;2.10;;;1.67;;
12135;SDS011;6131;56.420;15.548;2022-11-20T05:31:49;3.33;;;1.90;;
12135;SDS011;6131;56.420;15.548;2022-11-20T05:34:15;2.40;;;1.90;;
12135;SDS011;6131;56.420;15.548;2022-11-20T05:36:41;2.30;;;1.90;;
12135;SDS011;6131;56.420;15.548;2022-11-20T05:39:07;2.03;;;1.53;;
12135;SDS011;6131;56.420;15.548;2022-11-20T05:41:33;3.40;;;2.10;;
12135;SDS011;6131;56.420;15.548;2022-11-20T05:43:59;2.50;;;2.10;;
12135;SDS011;6131;56.420;15.548;2022-11-20T05:46:25;2.07;;;1.67;;
12135;SDS011;6131;56.420;15.548;2022-11-20T05:48:51;2.40;;;1.90;;
12135;SDS011;6131;56.420;15.548;2022-11-20T05:51:18;1.83;;;1.60;;
12135;SDS011;6131;56.420;15.548;2022-11-20T05:53:44;1.80;;;1.57;;
12135;SDS011;6131;56.420;15.548;2022-11-20T05:56:11;2.23;;;1.60;;
12135;SDS011;6131;56.420;15.548;2022-11-20T05:58:38;1.77;;;1.63;;
12135;SDS011;6131;56.420;15.548;2022-11-20T06:03:33;3.23;;;1.60;;
12135;SDS011;6131;56.420;15.548;2022-11-20T06:06:00;2.50;;;1.73;;
12135;SDS011;6131;56.420;15.548;2022-11-20T06:08:26;1.80;;;1.60;;
12135;SDS011;6131;56.420;15.548;2022-11-20T06:10:52;2.00;;;1.57;;
12135;SDS011;6131;56.420;15.548;2022-11-20T06:13:18;2.37;;;1.80;;
12135;SDS011;6131;56.420;15.548;2022-11-20T06:15:48;1.87;;;1.70;;
12135;SDS011;6131;56.420;15.548;2022-11-20T06:18:14;2.13;;;1.60;;
12135;SDS011;6131;56.420;15.548;2022-11-20T06:20:40;1.80;;;1.50;;
12135;SDS011;6131;56.420;15.548;2022-11-20T06:23:06;2.07;;;1.70;;
12135;SDS011;6131;56.420;15.548;2022-11-20T06:25:32;1.70;;;1.60;;
12135;SDS011;6131;56.420;15.548;2022-11-20T06:27:58;2.27;;;1.80;;
12135;SDS011;6131;56.420;15.548;2022-11-20T06:30:24;2.93;;;1.63;;
12135;SDS011;6131;56.420;15.548;2022-11-20T06:32:50;3.17;;;1.87;;
12135;SDS011;6131;56.420;15.548;2022-11-20T06:35:16;3.07;;;1.90;;
12135;SDS011;6131;56.420;15.548;2022-11-20T06:37:42;2.17;;;1.70;;
12135;SDS011;6131;56.420;15.548;2022-11-20T06:40:08;2.73;;;2.40;;
12135;SDS011;6131;56.420;15.548;2022-11-20T06:42:34;1.93;;;1.70;;
12135;SDS011;6131;56.420;15.548;2022-11-20T06:45:00;2.30;;;2.03;;
12135;SDS011;6131;56.420;15.548;2022-11-20T06:47:26;2.50;;;1.80;;
12135;SDS011;6131;56.420;15.548;2022-11-20T06:49:52;3.07;;;2.20;;
12135;SDS011;6131;56.420;15.548;2022-11-20T06:52:18;2.40;;;1.90;;
12135;SDS011;6131;56.420;15.548;2022-11-20T06:54:44;3.37;;;2.00;;
12135;SDS011;6131;56.420;15.548;2022-11-20T06:57:10;2.10;;;1.90;;
12135;SDS011;6131;56.420;15.548;2022-11-20T06:59:36;3.40;;;2.03;;
12135;SDS011;6131;56.420;15.548;2022-11-20T07:02:02;2.63;;;1.90;;
12135;SDS011;6131;56.420;15.548;2022-11-20T07:04:28;2.50;;;2.30;;
12135;SDS011;6131;56.420;15.548;2022-11-20T07:06:54;2.40;;;2.00;;
12135;SDS011;6131;56.420;15.548;2022-11-20T07:09:20;3.23;;;2.10;;
12135;SDS011;6131;56.420;15.548;2022-11-20T07:11:46;2.57;;;1.70;;
12135;SDS011;6131;56.420;15.548;2022-11-20T07:14:12;3.77;;;2.27;;
12135;SDS011;6131;56.420;15.548;2022-11-20T07:16:38;3.13;;;2.20;;
12135;SDS011;6131;56.420;15.548;2022-11-20T07:19:04;3.40;;;2.10;;
12135;SDS011;6131;56.420;15.548;2022-11-20T07:21:30;2.43;;;2.10;;
12135;SDS011;6131;56.420;15.548;2022-11-20T07:23:56;3.03;;;1.93;;
12135;SDS011;6131;56.420;15.548;2022-11-20T07:26:22;2.63;;;2.10;;
12135;SDS011;6131;56.420;15.548;2022-11-20T07:28:48;2.40;;;2.00;;
12135;SDS011;6131;56.420;15.548;2022-11-20T07:31:14;2.67;;;1.87;;
12135;SDS011;6131;56.420;15.548;2022-11-20T07:33:40;4.17;;;2.13;;
12135;SDS011;6131;56.420;15.548;2022-11-20T07:36:06;2.40;;;1.90;;
12135;SDS011;6131;56.420;15.548;2022-11-20T07:38:32;2.90;;;2.17;;
12135;SDS011;6131;56.420;15.548;2022-11-20T07:40:58;2.97;;;2.17;;
12135;SDS011;6131;56.420;15.548;2022-11-20T07:43:26;4.30;;;2.53;;
12135;SDS011;6131;56.420;15.548;2022-11-20T07:45:54;3.67;;;2.50;;
12135;SDS011;6131;56.420;15.548;2022-11-20T07:48:21;2.60;;;2.40;;
12135;SDS011;6131;56.420;15.548;2022-11-20T07:50:47;2.87;;;2.43;;
12135;SDS011;6131;56.420;15.548;2022-11-20T07:53:13;2.27;;;2.07;;
12135;SDS011;6131;56.420;15.548;2022-11-20T07:55:41;3.10;;;2.40;;
12135;SDS011;6131;56.420;15.548;2022-11-20T07:58:07;2.70;;;2.20;;
12135;SDS011;6131;56.420;15.548;2022-11-20T08:00:33;3.83;;;2.40;;
12135;SDS011;6131;56.420;15.548;2022-11-20T08:03:02;3.83;;;2.10;;
12135;SDS011;6131;56.420;15.548;2022-11-20T08:05:28;3.13;;;2.00;;
12135;SDS011;6131;56.420;15.548;2022-11-20T08:07:54;3.20;;;2.10;;
12135;SDS011;6131;56.420;15.548;2022-11-20T08:10:20;2.37;;;2.17;;
12135;SDS011;6131;56.420;15.548;2022-11-20T08:12:47;2.37;;;2.10;;
12135;SDS011;6131;56.420;15.548;2022-11-20T08:15:32;2.90;;;2.13;;
12135;SDS011;6131;56.420;15.548;2022-11-20T08:17:59;2.70;;;2.47;;
12135;SDS011;6131;56.420;15.548;2022-11-20T08:20:25;2.33;;;2.00;;
12135;SDS011;6131;56.420;15.548;2022-11-20T08:22:51;2.63;;;2.10;;
12135;SDS011;6131;56.420;15.548;2022-11-20T08:25:17;2.50;;;2.20;;
12135;SDS011;6131;56.420;15.548;2022-11-20T08:27:43;2.70;;;2.20;;
12135;SDS011;6131;56.420;15.548;2022-11-20T08:30:09;3.47;;;2.30;;
12135;SDS011;6131;56.420;15.548;2022-11-20T08:32:35;3.90;;;2.33;;
12135;SDS011;6131;56.420;15.548;2022-11-20T08:35:02;2.27;;;2.07;;
12135;SDS011;6131;56.420;15.548;2022-11-20T08:37:28;2.97;;;2.17;;
12135;SDS011;6131;56.420;15.548;2022-11-20T08:39:54;3.10;;;2.20;;
12135;SDS011;6131;56.420;15.548;2022-11-20T08:42:21;2.67;;;2.30;;
12135;SDS011;6131;56.420;15.548;2022-11-20T08:44:47;2.83;;;2.23;;
12135;SDS011;6131;56.420;15.548;2022-11-20T08:47:13;2.10;;;1.90;;
12135;SDS011;6131;56.420;15.548;2022-11-20T08:49:39;2.83;;;1.90;;
12135;SDS011;6131;56.420;15.548;2022-11-20T08:52:05;2.40;;;1.87;;
12135;SDS011;6131;56.420;15.548;2022-11-20T08:54:31;2.43;;;1.80;;
12135;SDS011;6131;56.420;15.548;2022-11-20T08:56:57;2.80;;;2.10;;
12135;SDS011;6131;56.420;15.548;2022-11-20T08:59:23;2.87;;;2.30;;
12135;SDS011;6131;56.420;15.548;2022-11-20T09:01:49;2.60;;;2.23;;
12135;SDS011;6131;56.420;15.548;2022-11-20T09:04:15;2.70;;;2.30;;
12135;SDS011;6131;56.420;15.548;2022-11-20T09:06:41;2.43;;;1.93;;
12135;SDS011;6131;56.420;15.548;2022-11-20T09:09:07;2.37;;;1.83;;
12135;SDS011;6131;56.420;15.548;2022-11-20T09:11:34;2.70;;;2.07;;
12135;SDS011;6131;56.420;15.548;2022-11-20T09:14:01;2.30;;;2.10;;
12135;SDS011;6131;56.420;15.548;2022-11-20T09:16:27;2.57;;;2.30;;
12135;SDS011;6131;56.420;15.548;2022-11-20T09:18:53;2.17;;;1.90;;
12135;SDS011;6131;56.420;15.548;2022-11-20T09:21:19;2.50;;;2.13;;
12135;SDS011;6131;56.420;15.548;2022-11-20T09:23:45;3.17;;;2.07;;
12135;SDS011;6131;56.420;15.548;2022-11-20T09:26:12;4.27;;;2.27;;
12135;SDS011;6131;56.420;15.548;2022-11-20T09:28:39;2.00;;;1.80;;
12135;SDS011;6131;56.420;15.548;2022-11-20T09:31:05;2.10;;;1.90;;
12135;SDS011;6131;56.420;15.548;2022-11-20T09:33:32;2.50;;;2.00;;
12135;SDS011;6131;56.420;15.548;2022-11-20T09:35:58;3.20;;;1.93;;
12135;SDS011;6131;56.420;15.548;2022-11-20T09:38:24;2.23;;;2.03;;
12135;SDS011;6131;56.420;15.548;2022-11-20T09:40:53;2.83;;;1.90;;
12135;SDS011;6131;56.420;15.548;2022-11-20T09:45:50;2.13;;;1.60;;
12135;SDS011;6131;56.420;15.548;2022-11-20T09:51:22;2.57;;;1.87;;
12135;SDS011;6131;56.420;15.548;2022-11-20T09:56:19;2.50;;;2.00;;
12135;SDS011;6131;56.420;15.548;2022-11-20T09:58:46;1.63;;;1.50;;
12135;SDS011;6131;56.420;15.548;2022-11-20T10:01:26;2.40;;;1.80;;
12135;SDS011;6131;56.420;15.548;2022-11-20T10:03:57;3.07;;;1.80;;
12135;SDS011;6131;56.420;15.548;2022-11-20T10:06:31;2.40;;;1.90;;
12135;SDS011;6131;56.420;15.548;2022-11-20T10:09:03;3.33;;;1.80;;
12135;SDS011;6131;56.420;15.548;2022-11-20T10:11:42;1.80;;;1.67;;
12135;SDS011;6131;56.420;15.548;2022-11-20T10:22:02;1.77;;;1.60;;
12135;SDS011;6131;56.420;15.548;2022-11-20T10:30:12;2.03;;;1.83;;
12135;SDS011;6131;56.420;15.548;2022-11-20T10:32:51;2.50;;;1.57;;
12135;SDS011;6131;56.420;15.548;2022-11-20T10:35:20;2.57;;;1.70;;
12135;SDS011;6131;56.420;15.548;2022-11-20T10:37:49;2.43;;;1.70;;
12135;SDS011;6131;56.420;15.548;2022-11-20T10:46:10;3.33;;;1.73;;
12135;SDS011;6131;56.420;15.548;2022-11-20T10:48:10;2.57;;;1.93;;
12135;SDS011;6131;56.420;15.548;2022-11-20T10:50:37;2.20;;;1.80;;
12135;SDS011;6131;56.420;15.548;2022-11-20T10:53:15;1.97;;;1.77;;
12135;SDS011;6131;56.420;15.548;2022-11-20T10:55:46;2.67;;;1.63;;
12135;SDS011;6131;56.420;15.548;2022-11-20T10:58:26;2.80;;;1.97;;
12135;SDS011;6131;56.420;15.548;2022-11-20T11:01:05;2.53;;;2.00;;
12135;SDS011;6131;56.420;15.548;2022-11-20T11:03:31;2.10;;;1.70;;
12135;SDS011;6131;56.420;15.548;2022-11-20T11:06:03;2.03;;;1.70;;
12135;SDS011;6131;56.420;15.548;2022-11-20T11:08:32;1.73;;;1.50;;
12135;SDS011;6131;56.420;15.548;2022-11-20T11:11:02;2.93;;;1.80;;
12135;SDS011;6131;56.420;15.548;2022-11-20T11:13:32;1.77;;;1.60;;
12135;SDS011;6131;56.420;15.548;2022-11-20T11:15:59;1.60;;;1.50;;
12135;SDS011;6131;56.420;15.548;2022-11-20T11:18:28;2.93;;;2.00;;
12135;SDS011;6131;56.420;15.548;2022-11-20T11:20:55;3.33;;;1.97;;
12135;SDS011;6131;56.420;15.548;2022-11-20T11:25:57;2.10;;;1.90;;
12135;SDS011;6131;56.420;15.548;2022-11-20T11:28:24;2.40;;;1.80;;
12135;SDS011;6131;56.420;15.548;2022-11-20T11:30:52;2.63;;;1.73;;
12135;SDS011;6131;56.420;15.548;2022-11-20T11:33:19;2.03;;;1.70;;
12135;SDS011;6131;56.420;15.548;2022-11-20T11:35:46;2.13;;;1.70;;
12135;SDS011;6131;56.420;15.548;2022-11-20T11:38:15;3.03;;;1.80;;
12135;SDS011;6131;56.420;15.548;2022-11-20T11:40:42;1.67;;;1.57;;
12135;SDS011;6131;56.420;15.548;2022-11-20T11:46:29;2.50;;;1.60;;
12135;SDS011;6131;56.420;15.548;2022-11-20T11:51:36;1.87;;;1.60;;
12135;SDS011;6131;56.420;15.548;2022-11-20T11:54:05;2.17;;;1.90;;
12135;SDS011;6131;56.420;15.548;2022-11-20T11:56:36;2.10;;;1.90;;
12135;SDS011;6131;56.420;15.548;2022-11-20T11:59:04;2.10;;;1.53;;
12135;SDS011;6131;56.420;15.548;2022-11-20T12:04:19;1.60;;;1.50;;
12135;SDS011;6131;56.420;15.548;2022-11-20T12:06:53;1.67;;;1.50;;
12135;SDS011;6131;56.420;15.548;2022-11-20T12:09:24;1.60;;;1.50;;
12135;SDS011;6131;56.420;15.548;2022-11-20T12:11:54;2.20;;;1.97;;
12135;SDS011;6131;56.420;15.548;2022-11-20T12:16:51;1.97;;;1.70;;
12135;SDS011;6131;56.420;15.548;2022-11-20T12:19:18;2.20;;;2.00;;
12135;SDS011;6131;56.420;15.548;2022-11-20T12:24:35;2.73;;;1.50;;
12135;SDS011;6131;56.420;15.548;2022-11-20T12:29:41;1.70;;;1.60;;
12135;SDS011;6131;56.420;15.548;2022-11-20T12:34:47;1.60;;;1.50;;
12135;SDS011;6131;56.420;15.548;2022-11-20T12:39:43;2.10;;;1.70;;
12135;SDS011;6131;56.420;15.548;2022-11-20T12:45:22;2.53;;;1.60;;
12135;SDS011;6131;56.420;15.548;2022-11-20T12:50:28;2.77;;;1.83;;
12135;SDS011;6131;56.420;15.548;2022-11-20T13:00:28;2.17;;;1.50;;
12135;SDS011;6131;56.420;15.548;2022-11-20T13:08:09;1.90;;;1.67;;
12135;SDS011;6131;56.420;15.548;2022-11-20T13:10:43;1.40;;;1.30;;
12135;SDS011;6131;56.420;15.548;2022-11-20T13:13:13;2.40;;;1.50;;
12135;SDS011;6131;56.420;15.548;2022-11-20T13:18:10;1.60;;;1.47;;
12135;SDS011;6131;56.420;15.548;2022-11-20T13:20:41;1.97;;;1.50;;
12135;SDS011;6131;56.420;15.548;2022-11-20T13:23:07;2.30;;;1.70;;
12135;SDS011;6131;56.420;15.548;2022-11-20T13:25:34;1.80;;;1.60;;
12135;SDS011;6131;56.420;15.548;2022-11-20T13:28:03;2.07;;;1.57;;
12135;SDS011;6131;56.420;15.548;2022-11-20T13:30:30;2.07;;;1.87;;
12135;SDS011;6131;56.420;15.548;2022-11-20T13:33:06;2.10;;;1.80;;
12135;SDS011;6131;56.420;15.548;2022-11-20T13:35:34;1.53;;;1.43;;
12135;SDS011;6131;56.420;15.548;2022-11-20T13:40:27;1.60;;;1.50;;
12135;SDS011;6131;56.420;15.548;2022-11-20T13:45:29;4.30;;;1.60;;
12135;SDS011;6131;56.420;15.548;2022-11-20T13:47:56;2.10;;;1.57;;
12135;SDS011;6131;56.420;15.548;2022-11-20T13:50:30;3.90;;;1.60;;
12135;SDS011;6131;56.420;15.548;2022-11-20T13:53:11;2.20;;;1.60;;
12135;SDS011;6131;56.420;15.548;2022-11-20T13:55:49;1.63;;;1.50;;
12135;SDS011;6131;56.420;15.548;2022-11-20T14:01:08;2.30;;;1.70;;
12135;SDS011;6131;56.420;15.548;2022-11-20T14:03:35;1.90;;;1.50;;
12135;SDS011;6131;56.420;15.548;2022-11-20T14:06:02;1.60;;;1.50;;
12135;SDS011;6131;56.420;15.548;2022-11-20T14:08:39;2.53;;;2.00;;
12135;SDS011;6131;56.420;15.548;2022-11-20T14:11:13;2.30;;;1.80;;
12135;SDS011;6131;56.420;15.548;2022-11-20T14:13:49;2.33;;;1.60;;
12135;SDS011;6131;56.420;15.548;2022-11-20T14:16:19;2.10;;;1.90;;
12135;SDS011;6131;56.420;15.548;2022-11-20T14:18:45;2.57;;;1.70;;
12135;SDS011;6131;56.420;15.548;2022-11-20T14:21:11;2.13;;;1.70;;
12135;SDS011;6131;56.420;15.548;2022-11-20T14:23:36;3.57;;;1.60;;
12135;SDS011;6131;56.420;15.548;2022-11-20T14:26:03;2.07;;;1.50;;
12135;SDS011;6131;56.420;15.548;2022-11-20T14:28:30;1.67;;;1.43;;
12135;SDS011;6131;56.420;15.548;2022-11-20T14:30:56;2.17;;;1.60;;
12135;SDS011;6131;56.420;15.548;2022-11-20T14:33:23;2.00;;;1.80;;
12135;SDS011;6131;56.420;15.548;2022-11-20T14:35:51;2.13;;;1.70;;
12135;SDS011;6131;56.420;15.548;2022-11-20T14:38:20;1.90;;;1.57;;
12135;SDS011;6131;56.420;15.548;2022-11-20T14:40:47;2.67;;;1.80;;
12135;SDS011;6131;56.420;15.548;2022-11-20T14:43:17;1.40;;;1.30;;
12135;SDS011;6131;56.420;15.548;2022-11-20T14:45:44;1.70;;;1.50;;
12135;SDS011;6131;56.420;15.548;2022-11-20T14:48:11;2.20;;;1.70;;
12135;SDS011;6131;56.420;15.548;2022-11-20T14:50:37;1.63;;;1.53;;
12135;SDS011;6131;56.420;15.548;2022-11-20T14:53:03;1.97;;;1.50;;
12135;SDS011;6131;56.420;15.548;2022-11-20T14:57:56;2.40;;;1.60;;
12135;SDS011;6131;56.420;15.548;2022-11-20T15:00:23;2.23;;;1.63;;
12135;SDS011;6131;56.420;15.548;2022-11-20T15:02:49;2.70;;;2.00;;
12135;SDS011;6131;56.420;15.548;2022-11-20T15:05:16;3.17;;;2.50;;
12135;SDS011;6131;56.420;15.548;2022-11-20T15:07:44;3.00;;;2.37;;
12135;SDS011;6131;56.420;15.548;2022-11-20T15:10:23;2.73;;;2.10;;
12135;SDS011;6131;56.420;15.548;2022-11-20T15:13:00;3.80;;;2.90;;
12135;SDS011;6131;56.420;15.548;2022-11-20T15:15:30;2.90;;;2.30;;
12135;SDS011;6131;56.420;15.548;2022-11-20T15:17:58;2.30;;;2.10;;
12135;SDS011;6131;56.420;15.548;2022-11-20T15:20:25;2.90;;;2.30;;
12135;SDS011;6131;56.420;15.548;2022-11-20T15:22:52;5.67;;;2.50;;
12135;SDS011;6131;56.420;15.548;2022-11-20T15:25:18;2.67;;;2.10;;
12135;SDS011;6131;56.420;15.548;2022-11-20T15:27:44;3.90;;;2.33;;
12135;SDS011;6131;56.420;15.548;2022-11-20T15:30:15;2.80;;;2.13;;
12135;SDS011;6131;56.420;15.548;2022-11-20T15:32:41;2.97;;;2.20;;
12135;SDS011;6131;56.420;15.548;2022-11-20T15:35:08;3.27;;;2.10;;
12135;SDS011;6131;56.420;15.548;2022-11-20T15:37:34;2.47;;;2.00;;
12135;SDS011;6131;56.420;15.548;2022-11-20T15:40:00;2.57;;;2.20;;
12135;SDS011;6131;56.420;15.548;2022-11-20T15:42:26;2.77;;;2.00;;
12135;SDS011;6131;56.420;15.548;2022-11-20T15:44:52;2.80;;;2.03;;
12135;SDS011;6131;56.420;15.548;2022-11-20T15:47:19;3.83;;;2.20;;
12135;SDS011;6131;56.420;15.548;2022-11-20T15:49:46;2.50;;;1.83;;
12135;SDS011;6131;56.420;15.548;2022-11-20T15:52:12;2.67;;;2.10;;
12135;SDS011;6131;56.420;15.548;2022-11-20T15:54:38;2.80;;;2.10;;
12135;SDS011;6131;56.420;15.548;2022-11-20T15:57:04;2.47;;;1.93;;
12135;SDS011;6131;56.420;15.548;2022-11-20T15:59:31;4.40;;;1.83;;
12135;SDS011;6131;56.420;15.548;2022-11-20T16:01:57;3.40;;;2.27;;
12135;SDS011;6131;56.420;15.548;2022-11-20T16:04:23;2.30;;;2.07;;
12135;SDS011;6131;56.420;15.548;2022-11-20T16:06:49;2.30;;;1.90;;
12135;SDS011;6131;56.420;15.548;2022-11-20T16:09:15;3.30;;;2.00;;
12135;SDS011;6131;56.420;15.548;2022-11-20T16:11:41;3.53;;;2.60;;
12135;SDS011;6131;56.420;15.548;2022-11-20T16:14:08;2.50;;;2.10;;
12135;SDS011;6131;56.420;15.548;2022-11-20T16:16:54;2.40;;;2.07;;
12135;SDS011;6131;56.420;15.548;2022-11-20T16:19:20;2.63;;;2.00;;
12135;SDS011;6131;56.420;15.548;2022-11-20T16:21:46;3.17;;;2.17;;
12135;SDS011;6131;56.420;15.548;2022-11-20T16:24:12;2.83;;;2.20;;
12135;SDS011;6131;56.420;15.548;2022-11-20T16:26:39;2.77;;;2.17;;
12135;SDS011;6131;56.420;15.548;2022-11-20T16:29:05;3.77;;;2.20;;